Oval Lp No.11 — JL6306 — position and weather

sailwx.info

Track history (hours):
 
Tides and Currents Weather Stations Pressure Air Temp Water Temp Dewpoint Dewpoint Depression Visibility Wind Speed Wind Dir Waves Ship Positions

Oval Lp No.11

Last reported at 2015-Jan-30 10:33 UTC. Time now 2015-Jan-31 08:42 UTC.
Position N 34°02' E 135°00'.

Length 67 m; draft 3.6 m.

Type: Ship (hazmat cat A). MMSI: 431500366.

Date/timePositionNaut miles runAvg speedWind from/ knotsBaromVisibWave heightAir tempDewpointWater temp
2015-Jan-30 10:33N 34°02' E 135°00'1212.2
2015-Jan-30 09:33N 34°14' E 134°59'1110.9
2015-Jan-30 08:32N 34°24' E 135°04'1111.8
2015-Jan-30 07:33N 34°32' E 135°15'9 9.2
2015-Jan-30 06:34N 34°35' E 135°25'1 0.5
2015-Jan-30 05:22N 34°34' E 135°26'0 0.0
2015-Jan-30 04:29N 34°34' E 135°26'0 0.0
2015-Jan-30 03:29N 34°34' E 135°26'1 0.7
2015-Jan-30 02:08N 34°34' E 135°25'0 0.0
2015-Jan-30 01:32N 34°34' E 135°25'0 0.0
2015-Jan-29 23:26N 34°34' E 135°25'2 2.0
2015-Jan-29 22:31N 34°34' E 135°23'0 0.0
2015-Jan-29 20:31N 34°34' E 135°23'0 0.0
2015-Jan-29 19:31N 34°34' E 135°23'0 0.0
2015-Jan-29 17:31N 34°34' E 135°23'0 0.0
2015-Jan-29 16:25N 34°34' E 135°23'0 0.0
2015-Jan-29 13:19N 34°34' E 135°23'0 0.0
2015-Jan-29 12:19N 34°34' E 135°23'0 0.1
2015-Jan-29 11:25N 34°34' E 135°23'0 0.0
2015-Jan-29 09:31N 34°34' E 135°23'2 2.1
2015-Jan-29 08:28N 34°34' E 135°26'0 0.0
2015-Jan-29 07:28N 34°34' E 135°26'0 0.0
2015-Jan-29 06:28N 34°34' E 135°26'1 1.3
2015-Jan-29 05:32N 34°35' E 135°25'9 9.5
2015-Jan-29 04:33N 34°31' E 135°15'1110.7
2015-Jan-29 03:32N 34°23' E 135°06'10 9.9
2015-Jan-29 02:33N 34°15' E 134°59'1110.8
2015-Jan-29 01:32N 34°04' E 135°01'210 4.9
2015-Jan-27 07:04N 34°47' E 139°10'1810.6
2015-Jan-27 05:23N 34°59' E 139°26'911.2
2015-Jan-27 04:33N 35°04' E 139°35'1111.1
2015-Jan-27 03:33N 35°12' E 139°45'1111.4
2015-Jan-27 02:33N 35°23' E 139°42'6 5.5
2015-Jan-27 01:32N 35°28' E 139°40'0 0.0
2015-Jan-27 00:32N 35°28' E 139°40'0 0.0
2015-Jan-26 23:32N 35°28' E 139°40'0 0.4
2015-Jan-26 22:33N 35°28' E 139°40'3 3.0
2015-Jan-26 21:33N 35°28' E 139°44'0 0.0
2015-Jan-26 20:03N 35°28' E 139°44'0 0.0
2015-Jan-26 19:33N 35°28' E 139°44'0 0.0
2015-Jan-26 18:33N 35°28' E 139°44'0 0.0
2015-Jan-26 17:33N 35°28' E 139°44'0 0.0
2015-Jan-26 16:33N 35°28' E 139°44'0 0.0
2015-Jan-26 15:33N 35°28' E 139°44'0 0.0
2015-Jan-26 14:33N 35°28' E 139°44'0 0.0
2015-Jan-26 13:33N 35°28' E 139°44'0 0.0
2015-Jan-26 12:33N 35°28' E 139°44'0 0.0
2015-Jan-26 11:27N 35°28' E 139°44'0 0.0
2015-Jan-26 10:33N 35°28' E 139°44'0 0.0
2015-Jan-26 09:33N 35°28' E 139°44'0 0.0
2015-Jan-26 08:33N 35°28' E 139°44'0 0.0
2015-Jan-26 07:30N 35°28' E 139°44'0 0.1
2015-Jan-26 06:33N 35°28' E 139°44'5 5.1
2015-Jan-26 05:33N 35°29' E 139°50'8 1.3
2015-Jan-25 23:16N 35°32' E 139°59'4 4.8
2015-Jan-25 22:32N 35°29' E 139°56'0 0.0
2015-Jan-25 21:32N 35°29' E 139°56'0 0.0
2015-Jan-25 20:20N 35°29' E 139°56'0 0.0
2015-Jan-25 19:20N 35°29' E 139°56'0 0.0
2015-Jan-25 18:32N 35°29' E 139°56'0 0.0
2015-Jan-25 17:20N 35°29' E 139°56'0 0.0
2015-Jan-25 16:32N 35°29' E 139°56'0 0.0
2015-Jan-25 15:32N 35°29' E 139°56'0 0.0
2015-Jan-25 14:29N 35°29' E 139°56'7 8.0
2015-Jan-25 13:33N 35°26' E 139°48'10 9.8
2015-Jan-25 12:33N 35°16' E 139°46'1110.6
2015-Jan-25 11:33N 35°06' E 139°42'1211.5
2015-Jan-25 10:31N 34°57' E 139°32'23010.0
2015-Jan-24 11:21N 34°01' E 135°01'1011.6
2015-Jan-24 10:32N 34°11' E 134°60'1511.4
2015-Jan-24 09:15N 34°25' E 135°05'912.7
2015-Jan-24 08:33N 34°30' E 135°13'1110.9
2015-Jan-24 07:33N 34°36' E 135°24'2 2.0
2015-Jan-24 06:31N 34°34' E 135°26'0 0.0
2015-Jan-24 05:25N 34°34' E 135°26'1 0.6
2015-Jan-24 04:32N 34°35' E 135°25'2 0.4
2015-Jan-23 23:32N 34°33' E 135°23'3 3.0
2015-Jan-23 22:28N 34°32' E 135°20'0 0.0
2015-Jan-23 20:22N 34°32' E 135°20'0 0.0
2015-Jan-23 19:16N 34°32' E 135°20'0 0.0
2015-Jan-23 18:16N 34°32' E 135°20'0 0.0
2015-Jan-23 17:28N 34°32' E 135°20'0 0.0
2015-Jan-23 16:28N 34°32' E 135°20'0 0.0
2015-Jan-23 15:28N 34°32' E 135°20'0 0.0
2015-Jan-23 14:28N 34°32' E 135°20'0 0.0
2015-Jan-23 13:28N 34°32' E 135°20'0 0.0
2015-Jan-23 12:28N 34°32' E 135°20'0 0.0
2015-Jan-23 11:28N 34°32' E 135°20'0 0.0
2015-Jan-23 10:28N 34°32' E 135°20'0 0.0
2015-Jan-23 09:16N 34°32' E 135°20'0 0.0
2015-Jan-23 08:19N 34°32' E 135°20'0 0.0
2015-Jan-23 07:25N 34°32' E 135°20'0 0.0
2015-Jan-23 06:31N 34°32' E 135°20'0 0.0
2015-Jan-23 04:31N 34°32' E 135°20'0 0.0
2015-Jan-23 03:19N 34°32' E 135°20'2 3.2
2015-Jan-23 02:33N 34°35' E 135°19'5 1.3
2015-Jan-22 22:33N 34°34' E 135°26'3 2.6
2015-Jan-22 21:33N 34°36' E 135°23'0 0.0
2015-Jan-22 20:27N 34°36' E 135°23'0 0.0
2015-Jan-22 19:09N 34°36' E 135°23'0 0.0
2015-Jan-22 18:33N 34°36' E 135°23'0 0.0
2015-Jan-22 17:33N 34°36' E 135°23'0 0.0
2015-Jan-22 16:21N 34°36' E 135°23'0 0.0
2015-Jan-22 15:33N 34°36' E 135°23'0 0.0
2015-Jan-22 14:33N 34°36' E 135°23'0 0.0
2015-Jan-22 13:33N 34°36' E 135°23'0 0.1
2015-Jan-22 12:33N 34°36' E 135°23'1110.5
2015-Jan-22 11:34N 34°29' E 135°14'1111.2
2015-Jan-22 10:33N 34°21' E 135°04'1010.3
2015-Jan-22 09:33N 34°11' E 135°00'217 8.9
2015-Jan-21 09:17N 34°54' E 139°18'912.1
2015-Jan-21 08:34N 34°59' E 139°27'1211.7
2015-Jan-21 07:33N 35°05' E 139°39'1111.1
2015-Jan-21 06:34N 35°15' E 139°46'1010.0
2015-Jan-21 05:34N 35°24' E 139°43'1310.9
2015-Jan-21 04:20N 35°32' E 139°57'2 0.4
2015-Jan-20 22:07N 35°29' E 139°56'0 0.0
2015-Jan-20 21:25N 35°29' E 139°56'0 0.0
2015-Jan-20 20:07N 35°29' E 139°56'0 0.0
2015-Jan-20 19:28N 35°29' E 139°56'0 0.0
2015-Jan-20 17:28N 35°29' E 139°56'0 0.0
2015-Jan-20 16:28N 35°29' E 139°56'0 0.3
2015-Jan-20 15:33N 35°29' E 139°55'1110.6
2015-Jan-20 14:33N 35°23' E 139°45'10 9.9
2015-Jan-20 13:33N 35°13' E 139°47'1010.4
2015-Jan-20 12:33N 35°04' E 139°41'1110.3
2015-Jan-20 11:32N 34°57' E 139°30'  
Track history (hours):
 
Tides and Currents Weather Stations Pressure Air Temp Water Temp Dewpoint Dewpoint Depression Visibility Wind Speed Wind Dir Waves Ship Positions

Oval Lp No.11

Last reported at 2015-Jan-30 10:33 UTC. Time now 2015-Jan-31 08:42 UTC.
Position N 34°02' E 135°00'.

Length 67 m; draft 3.6 m.

Type: Ship (hazmat cat A). MMSI: 431500366.

Date/timePositionNaut miles runAvg speedWind from/ knotsBaromVisibWave heightAir tempDewpointWater temp
2015-Jan-30 10:33N 34°02' E 135°00'1212.2
2015-Jan-30 09:33N 34°14' E 134°59'1110.9
2015-Jan-30 08:32N 34°24' E 135°04'1111.8
2015-Jan-30 07:33N 34°32' E 135°15'9 9.2
2015-Jan-30 06:34N 34°35' E 135°25'1 0.5
2015-Jan-30 05:22N 34°34' E 135°26'0 0.0
2015-Jan-30 04:29N 34°34' E 135°26'0 0.0
2015-Jan-30 03:29N 34°34' E 135°26'1 0.7
2015-Jan-30 02:08N 34°34' E 135°25'0 0.0
2015-Jan-30 01:32N 34°34' E 135°25'0 0.0
2015-Jan-29 23:26N 34°34' E 135°25'2 2.0
2015-Jan-29 22:31N 34°34' E 135°23'0 0.0
2015-Jan-29 20:31N 34°34' E 135°23'0 0.0
2015-Jan-29 19:31N 34°34' E 135°23'0 0.0
2015-Jan-29 17:31N 34°34' E 135°23'0 0.0
2015-Jan-29 16:25N 34°34' E 135°23'0 0.0
2015-Jan-29 13:19N 34°34' E 135°23'0 0.0
2015-Jan-29 12:19N 34°34' E 135°23'0 0.1
2015-Jan-29 11:25N 34°34' E 135°23'0 0.0
2015-Jan-29 09:31N 34°34' E 135°23'2 2.1
2015-Jan-29 08:28N 34°34' E 135°26'0 0.0
2015-Jan-29 07:28N 34°34' E 135°26'0 0.0
2015-Jan-29 06:28N 34°34' E 135°26'1 1.3
2015-Jan-29 05:32N 34°35' E 135°25'9 9.5
2015-Jan-29 04:33N 34°31' E 135°15'1110.7
2015-Jan-29 03:32N 34°23' E 135°06'10 9.9
2015-Jan-29 02:33N 34°15' E 134°59'1110.8
2015-Jan-29 01:32N 34°04' E 135°01'210 4.9
2015-Jan-27 07:04N 34°47' E 139°10'1810.6
2015-Jan-27 05:23N 34°59' E 139°26'911.2
2015-Jan-27 04:33N 35°04' E 139°35'1111.1
2015-Jan-27 03:33N 35°12' E 139°45'1111.4
2015-Jan-27 02:33N 35°23' E 139°42'6 5.5
2015-Jan-27 01:32N 35°28' E 139°40'0 0.0
2015-Jan-27 00:32N 35°28' E 139°40'0 0.0
2015-Jan-26 23:32N 35°28' E 139°40'0 0.4
2015-Jan-26 22:33N 35°28' E 139°40'3 3.0
2015-Jan-26 21:33N 35°28' E 139°44'0 0.0
2015-Jan-26 20:03N 35°28' E 139°44'0 0.0
2015-Jan-26 19:33N 35°28' E 139°44'0 0.0
2015-Jan-26 18:33N 35°28' E 139°44'0 0.0
2015-Jan-26 17:33N 35°28' E 139°44'0 0.0
2015-Jan-26 16:33N 35°28' E 139°44'0 0.0
2015-Jan-26 15:33N 35°28' E 139°44'0 0.0
2015-Jan-26 14:33N 35°28' E 139°44'0 0.0
2015-Jan-26 13:33N 35°28' E 139°44'0 0.0
2015-Jan-26 12:33N 35°28' E 139°44'0 0.0
2015-Jan-26 11:27N 35°28' E 139°44'0 0.0
2015-Jan-26 10:33N 35°28' E 139°44'0 0.0
2015-Jan-26 09:33N 35°28' E 139°44'0 0.0
2015-Jan-26 08:33N 35°28' E 139°44'0 0.0
2015-Jan-26 07:30N 35°28' E 139°44'0 0.1
2015-Jan-26 06:33N 35°28' E 139°44'5 5.1
2015-Jan-26 05:33N 35°29' E 139°50'8 1.3
2015-Jan-25 23:16N 35°32' E 139°59'4 4.8
2015-Jan-25 22:32N 35°29' E 139°56'0 0.0
2015-Jan-25 21:32N 35°29' E 139°56'0 0.0
2015-Jan-25 20:20N 35°29' E 139°56'0 0.0
2015-Jan-25 19:20N 35°29' E 139°56'0 0.0
2015-Jan-25 18:32N 35°29' E 139°56'0 0.0
2015-Jan-25 17:20N 35°29' E 139°56'0 0.0
2015-Jan-25 16:32N 35°29' E 139°56'0 0.0
2015-Jan-25 15:32N 35°29' E 139°56'0 0.0
2015-Jan-25 14:29N 35°29' E 139°56'7 8.0
2015-Jan-25 13:33N 35°26' E 139°48'10 9.8
2015-Jan-25 12:33N 35°16' E 139°46'1110.6
2015-Jan-25 11:33N 35°06' E 139°42'1211.5
2015-Jan-25 10:31N 34°57' E 139°32'23010.0
2015-Jan-24 11:21N 34°01' E 135°01'1011.6
2015-Jan-24 10:32N 34°11' E 134°60'1511.4
2015-Jan-24 09:15N 34°25' E 135°05'912.7
2015-Jan-24 08:33N 34°30' E 135°13'1110.9
2015-Jan-24 07:33N 34°36' E 135°24'2 2.0
2015-Jan-24 06:31N 34°34' E 135°26'0 0.0
2015-Jan-24 05:25N 34°34' E 135°26'1 0.6
2015-Jan-24 04:32N 34°35' E 135°25'2 0.4
2015-Jan-23 23:32N 34°33' E 135°23'3 3.0
2015-Jan-23 22:28N 34°32' E 135°20'0 0.0
2015-Jan-23 20:22N 34°32' E 135°20'0 0.0
2015-Jan-23 19:16N 34°32' E 135°20'0 0.0
2015-Jan-23 18:16N 34°32' E 135°20'0 0.0
2015-Jan-23 17:28N 34°32' E 135°20'0 0.0
2015-Jan-23 16:28N 34°32' E 135°20'0 0.0
2015-Jan-23 15:28N 34°32' E 135°20'0 0.0
2015-Jan-23 14:28N 34°32' E 135°20'0 0.0
2015-Jan-23 13:28N 34°32' E 135°20'0 0.0
2015-Jan-23 12:28N 34°32' E 135°20'0 0.0
2015-Jan-23 11:28N 34°32' E 135°20'0 0.0
2015-Jan-23 10:28N 34°32' E 135°20'0 0.0
2015-Jan-23 09:16N 34°32' E 135°20'0 0.0
2015-Jan-23 08:19N 34°32' E 135°20'0 0.0
2015-Jan-23 07:25N 34°32' E 135°20'0 0.0
2015-Jan-23 06:31N 34°32' E 135°20'0 0.0
2015-Jan-23 04:31N 34°32' E 135°20'0 0.0
2015-Jan-23 03:19N 34°32' E 135°20'2 3.2
2015-Jan-23 02:33N 34°35' E 135°19'5 1.3
2015-Jan-22 22:33N 34°34' E 135°26'3 2.6
2015-Jan-22 21:33N 34°36' E 135°23'0 0.0
2015-Jan-22 20:27N 34°36' E 135°23'0 0.0
2015-Jan-22 19:09N 34°36' E 135°23'0 0.0
2015-Jan-22 18:33N 34°36' E 135°23'0 0.0
2015-Jan-22 17:33N 34°36' E 135°23'0 0.0
2015-Jan-22 16:21N 34°36' E 135°23'0 0.0
2015-Jan-22 15:33N 34°36' E 135°23'0 0.0
2015-Jan-22 14:33N 34°36' E 135°23'0 0.0
2015-Jan-22 13:33N 34°36' E 135°23'0 0.1
2015-Jan-22 12:33N 34°36' E 135°23'1110.5
2015-Jan-22 11:34N 34°29' E 135°14'1111.2
2015-Jan-22 10:33N 34°21' E 135°04'1010.3
2015-Jan-22 09:33N 34°11' E 135°00'217 8.9
2015-Jan-21 09:17N 34°54' E 139°18'912.1
2015-Jan-21 08:34N 34°59' E 139°27'1211.7
2015-Jan-21 07:33N 35°05' E 139°39'1111.1
2015-Jan-21 06:34N 35°15' E 139°46'1010.0
2015-Jan-21 05:34N 35°24' E 139°43'1310.9
2015-Jan-21 04:20N 35°32' E 139°57'2 0.4
2015-Jan-20 22:07N 35°29' E 139°56'0 0.0
2015-Jan-20 21:25N 35°29' E 139°56'0 0.0
2015-Jan-20 20:07N 35°29' E 139°56'0 0.0
2015-Jan-20 19:28N 35°29' E 139°56'0 0.0
2015-Jan-20 17:28N 35°29' E 139°56'0 0.0
2015-Jan-20 16:28N 35°29' E 139°56'0 0.3
2015-Jan-20 15:33N 35°29' E 139°55'1110.6
2015-Jan-20 14:33N 35°23' E 139°45'10 9.9
2015-Jan-20 13:33N 35°13' E 139°47'1010.4
2015-Jan-20 12:33N 35°04' E 139°41'1110.3
2015-Jan-20 11:32N 34°57' E 139°30'  

Dump ship's entire track history